Vers la page d'accueil de NAV CANADA Ouverture d'une nouvelle session Chercher sur le site AWWS Clause de non-reponsabilité To the equivalent English page Trucs et astuces FAQ Quoi de neuf sur le site Vers la section Prévisions et observations / NOTAM Vers le site web pour <<Déposer un plan de vol>> Publications et liens importants Mise à jour du profil d'usager Numéros de téléphone des FIC Mes données météo personnelles Données météo de route Données météo régionales Données météo locales Vers la section Prévisions et observations / NOTAM
Requête générée le 2020/09/21 à 19:24:50 UTC. L'information météorologique disponible à ce moment est affichée.

METAR/TAF

Si vous notez des différences entre le METAR/TAF codé et le METAR/TAF en langage clair, veuillez utiliser la version codée. Les bulletins LWIS ne sont pas décodés en langage clair.

MONTREAL/ST-HUBERT/QC    (voir Cam météo)

METAR CYHU 211900Z AUTO VRB03KT 9SM CLR 16/M00 A3053 RMK SLP342=
METAR
LIEU
CYHU - MONTREAL/ST-HUBERT/QC
DATE - HEURE
21 SEPTEMBRE 2020 - 1900 UTC
VENT
VRB @ 3  NOEUDS
VISIBILITE
9 MILLES TERR.
PORTEE VISUELLE DE PISTE
METEO
NEBULOSITE
CIEL DEGAGE
TEMP / PT DE ROSEE
16 C / 0 C
ALTIMETRE
30.53 PO HG
TEMPS RECENT
CISAILLEMENT

METAR CYHU 211800Z AUTO 19006KT 140V240 9SM CLR 16/01 A3056 RMK SLP352=
METAR
LIEU
CYHU - MONTREAL/ST-HUBERT/QC
DATE - HEURE
21 SEPTEMBRE 2020 - 1800 UTC
VENT
190 VRAIS @ 6  NOEUDS
VARIATION
140 <-> 240  DEG
VISIBILITE
9 MILLES TERR.
PORTEE VISUELLE DE PISTE
METEO
NEBULOSITE
CIEL DEGAGE
TEMP / PT DE ROSEE
16 C / 1 C
ALTIMETRE
30.56 PO HG
TEMPS RECENT
CISAILLEMENT

METAR CYHU 211700Z AUTO VRB02KT 9SM CLR 15/01 A3059 RMK SLP362=
METAR
LIEU
CYHU - MONTREAL/ST-HUBERT/QC
DATE - HEURE
21 SEPTEMBRE 2020 - 1700 UTC
VENT
VRB @ 2  NOEUDS
VISIBILITE
9 MILLES TERR.
PORTEE VISUELLE DE PISTE
METEO
NEBULOSITE
CIEL DEGAGE
TEMP / PT DE ROSEE
15 C / 1 C
ALTIMETRE
30.59 PO HG
TEMPS RECENT
CISAILLEMENT

TAF CYHU 211738Z 2118/2218 VRB03KT P6SM SKC PROB30 2209/2213 2SM BR FM221700 24007KT P6SM SKC RMK FCST BASED ON AUTO OBS. NXT FCST BY 220000Z=
TAF
LIEU

CYHU - MONTREAL/ST-HUBERT/QC
VALIDITE [UTC]
21 SEP - 1738 à
22 SEP - 1800
 
PERIODES
[UTC]
VENT
[DEGRES VRAIS]
VISIBILITE
[MILLES TERR.]
METEO
NEBULOSITE
[PIEDS AGL]
 
21 SEP - 1800 à
22 SEP - 1700
VARIABLE @ 3 NOEUDS
6+
---
CIEL DEGAGE
30% PROBABILITE
22 SEP - 0900 à
22 SEP - 1300
 
2
BRUME
 
 
22 SEP - 1700 à
22 SEP - 1800
240 @ 7 NOEUDS
6+
---
CIEL DEGAGE
REMARQUES
LA PREVISION EST FONDEE SUR DES OBSERVATIONS AUTOMATISEES - LA PREVISION SUIVANTE SERA EMISE POUR 0000 UTC LE 22


Votre heure Heure UTC
Données météorologiques fournies par Environnement Canada et NAV CANADA